Terminal Aerodrome Forecast
Issued by NWS

Home | Current Version | Previous Version | Text Only | Print | Product List | Glossary On
Versions: 1 2 3 4 5 6 7 8 9 10 11 12 13
000
FTUS45 KTWC 071720
TAFOLS
TAF
KOLS 071720Z 0718/0818 20007KT P6SM FEW120 SCT200
     FM072100 27009KT P6SM FEW120 BKN200
     FM080200 VRB04KT P6SM BKN200=

USA.gov is the U.S. government's official web portal to all federal, state and local government web resources and services.